Historique des stations

Station météo de Les Bordes

Altitude de la station : 154m m







Données météorologiques pour le 18/05/2021
Date
Heure
Températures Humidité Point de rosée Vitesse
du vent
Direction Rafales Windchill Pression Pluviométrie
Cumul
Date
Heure
Températures Humidité Point de rosée Vitesse
du vent
Direction Rafales Windchill Pression Pluviométrie
Cumul
18/05/2021 13:0014.2 °C67 %8.2 °C2 km/hSSE6 km/h14.01018 hPa0.0 mm
18/05/2021 12:4014.1 °C74 %9.5 °C-SSE3 km/h14.01018 hPa0.0 mm
18/05/2021 12:3014.1 °C75 %9.7 °C2 km/hSSE6 km/h14.01018 hPa0.0 mm
18/05/2021 12:1014.1 °C73 %9.3 °C2 km/hSSE6 km/h14.01018 hPa0.0 mm
18/05/2021 12:00---2 km/h---0 hPa0.0 mm
18/05/2021 11:3013.2 °C79 %9.7 °C2 km/hSSE6 km/h13.01018 hPa0.0 mm
18/05/2021 11:1013.0 °C78 %9.3 °C2 km/hSSE6 km/h13.01019 hPa0.0 mm
18/05/2021 11:0012.4 °C81 %9.3 °C-SSE8 km/h12.51019 hPa0.0 mm
18/05/2021 10:4011.9 °C85 %9.5 °C-5 km/h12.01018 hPa0.0 mm
18/05/2021 10:30---2 km/h---0 hPa0.0 mm
18/05/2021 10:0011.0 °C88 %9.1 °C2 km/hSSE6 km/h11.01019 hPa0.0 mm
18/05/2021 09:4010.8 °C89 %9.0 °C2 km/hSSE5 km/h11.01019 hPa0.0 mm
18/05/2021 09:3010.5 °C89 %8.8 °C2 km/hSSE10 km/h10.51019 hPa0.0 mm
18/05/2021 09:1010.6 °C90 %9.0 °C2 km/hSSE10 km/h10.51019 hPa0.0 mm
18/05/2021 09:0010.5 °C90 %8.9 °C2 km/hSSE8 km/h10.51019 hPa0.0 mm
18/05/2021 08:4010.3 °C91 %8.9 °C2 km/hSSE5 km/h10.51019 hPa0.0 mm
18/05/2021 08:30---2 km/h---0 hPa0.0 mm
18/05/2021 08:009.6 °C93 %8.5 °C2 km/hSE10 km/h9.51019 hPa0.0 mm
18/05/2021 07:409.4 °C93 %8.4 °C2 km/hSE5 km/h9.51019 hPa0.0 mm
18/05/2021 07:309.3 °C93 %8.3 °C-SE6 km/h9.51019 hPa0.0 mm
18/05/2021 07:109.2 °C93 %8.1 °C-SE5 km/h9.01019 hPa0.0 mm
18/05/2021 07:009.1 °C93 %8.0 °C-SE6 km/h9.01019 hPa0.0 mm
18/05/2021 06:409.2 °C93 %8.1 °C2 km/hSE5 km/h9.01019 hPa0.0 mm
18/05/2021 06:309.2 °C93 %8.1 °C2 km/hSSE8 km/h9.01019 hPa0.0 mm
18/05/2021 06:10---2 km/h---0 hPa0.0 mm
18/05/2021 05:409.2 °C93 %8.1 °C2 km/hSE6 km/h9.01019 hPa0.0 mm
18/05/2021 05:309.1 °C93 %8.0 °C-SSE5 km/h9.01018 hPa0.0 mm
18/05/2021 05:109.0 °C93 %7.9 °C-SE8 km/h9.01018 hPa0.0 mm
18/05/2021 05:00-------0 hPa0.0 mm
18/05/2021 04:308.8 °C93 %7.8 °C2 km/hSE6 km/h9.01018 hPa0.0 mm
18/05/2021 04:108.7 °C93 %7.7 °C2 km/hSE6 km/h8.51019 hPa0.0 mm
18/05/2021 04:00---2 km/h---0 hPa0.0 mm
18/05/2021 03:30---2 km/h---0 hPa0.0 mm
18/05/2021 03:008.6 °C93 %7.5 °C2 km/hSE8 km/h8.51019 hPa0.0 mm
18/05/2021 02:408.5 °C92 %7.3 °C2 km/hSE10 km/h8.51019 hPa0.0 mm
18/05/2021 02:308.6 °C92 %7.3 °C2 km/hSE6 km/h8.51019 hPa0.0 mm
18/05/2021 02:108.7 °C92 %7.4 °C2 km/hSE10 km/h8.51019 hPa0.0 mm
18/05/2021 02:00-------0 hPa-
18/05/2021 01:30---2 km/h---0 hPa6.2 mm
18/05/2021 01:009.2 °C91 %7.8 °C2 km/hSE8 km/h9.01019 hPa6.2 mm
18/05/2021 00:409.4 °C90 %7.8 °C-SE6 km/h9.51019 hPa6.2 mm
18/05/2021 00:309.8 °C89 %8.1 °C-SE5 km/h10.01019 hPa6.2 mm
18/05/2021 00:1010.1 °C90 %8.5 °C-SE5 km/h10.01019 hPa6.2 mm
18/05/2021 00:00-------0 hPa6.2 mm


Minima :

Température : 8.5 °C
Humidité : 67 %
Point de rosée : 7.3 °C
Vent moyen : 2 km/h
Windchill : 8.5
Pression atm. : 0 hPa
Maxima :

Température : 14.2 °C
Humidité : 93 %
Point de rosée : 9.7 °C
Vent moyen : 2 km/h
Windchill : 14.0
Pression atm. : 1019 hPa
Rafales max : 10 km/h
Cumul de pluie sur 24H : 6.2 mm

Les Bordes est une commune du département Indre (36).
La station météorologique du réseau de l'association la plus proche de Les Bordes est celle de Issoudun



Icône Facebook Association Météo Centre Icône Twitter Association Météo Centre Icône Chaîne Youtube Association Météo Centre Icône contact Association Météo Centre Icône Insta Association Météo Centre